Time;durP1;ratioP1;P1;durP2;ratioP2;P2;SDS_P1;SDS_P2;PMS_P1;PMS_P2;Temp;Humidity;BMP_temperature;BMP_pressure;BME280_temperature;BME280_humidity;BME280_pressure;Samples;Min_cycle;Max_cycle;Signal;HPM_P1;HPM_P2
2021/03/18 00:01:08;;;;;;;;;;;;;;;16.44;67.26;100168.66;5097063;28;1455;-46
2021/03/18 00:03:36;;;;;;;;;;;;;;;16.41;67.27;100176.91;5106174;28;1957;-45
2021/03/18 00:06:08;;;;;;;;;;;;;;;16.40;66.58;100183.22;5104692;28;1915;-46
2021/03/18 00:08:38;;;;;;;;;;;;;;;16.39;67.87;100177.03;5113998;28;1710;-47
2021/03/18 00:11:08;;;;;;;;;;;;;;;16.35;66.84;100169.44;5107892;28;1361;-46
2021/03/18 00:13:34;;;;;;;;;;;;;;;16.33;66.69;100171.38;5098493;28;1824;-47
2021/03/18 00:16:01;;;;;;;;;;;;;;;16.33;67.59;100177.56;5098633;28;1672;-46
2021/03/18 00:18:32;;;;;;;;;;;;;;;16.34;68.06;100175.75;5113693;28;1564;-46
2021/03/18 00:20:57;;;;;;;;;;;;;;;16.35;66.75;100169.44;5096461;28;1376;-46
2021/03/18 00:23:24;;;;;;;;;;;;;;;16.35;67.98;100185.44;5115204;28;1913;-46
2021/03/18 00:25:49;;;;;;;;;;;;;;;16.30;67.45;100161.84;5112263;27;1734;-46
2021/03/18 00:28:14;;;;;;;;;;;;;;;16.28;68.10;100167.28;5113903;27;1724;-47
2021/03/18 00:30:41;;;;;;;;;;;;;;;16.26;67.80;100161.25;5113874;28;1411;-47
2021/03/18 00:33:06;;;;;;;;;;;;;;;16.29;66.85;100169.00;5115383;28;1808;-47
2021/03/18 00:35:32;;;;;;;;;;;;;;;16.28;67.84;100171.78;5114382;28;901;-46
2021/03/18 00:37:59;;;;;;;;;;;;;;;16.27;67.66;100162.09;5100730;28;1700;-46
2021/03/18 00:40:28;;;;;;;;;;;;;;;16.27;67.69;100162.09;5093794;27;1793;-46
2021/03/18 00:42:58;;;;;;;;;;;;;;;16.26;66.85;100163.06;5094555;28;1960;-46
2021/03/18 00:45:33;;;;;;;;;;;;;;;16.25;66.99;100167.56;5095346;27;1835;-46
2021/03/18 00:47:59;;;;;;;;;;;;;;;16.26;67.54;100176.41;5112637;28;938;-46
2021/03/18 00:50:29;;;;;;;;;;;;;;;16.25;66.81;100162.25;5111199;28;1496;-47
2021/03/18 00:52:56;;;;;;;;;;;;;;;16.28;67.92;100175.31;5112154;28;1802;-46
2021/03/18 00:55:22;;;;;;;;;;;;;;;16.25;67.52;100170.25;5113756;28;1783;-46
2021/03/18 00:57:48;;;;;;;;;;;;;;;16.24;66.79;100176.53;5115424;28;788;-46
2021/03/18 01:00:17;;;;;;;;;;;;;;;16.26;66.75;100157.75;5111994;28;1866;-46
2021/03/18 01:02:43;;;;;;;;;;;;;;;16.33;67.81;100166.06;5111853;28;1889;-46
2021/03/18 01:05:15;;;;;;;;;;;;;;;16.32;67.63;100156.38;5093741;28;1515;-46
2021/03/18 01:07:42;;;;;;;;;;;;;;;16.29;67.63;100154.78;5103361;27;1936;-46
2021/03/18 01:10:09;;;;;;;;;;;;;;;16.31;67.83;100163.50;5106658;28;1814;-46
2021/03/18 01:12:36;;;;;;;;;;;;;;;16.37;66.48;100156.81;5109822;28;1635;-46
2021/03/18 01:15:03;;;;;;;;;;;;;;;16.35;66.30;100150.75;5110528;27;1777;-49
2021/03/18 01:17:29;;;;;;;;;;;;;;;16.33;66.36;100144.72;5113411;28;1239;-46
2021/03/18 01:19:55;;;;;;;;;;;;;;;16.35;66.45;100153.41;5112842;28;1820;-46
2021/03/18 01:22:22;;;;;;;;;;;;;;;16.35;67.12;100153.41;5110410;27;2034;-46
2021/03/18 01:24:48;;;;;;;;;;;;;;;16.30;66.54;100159.16;5113686;28;1924;-47
2021/03/18 01:27:14;;;;;;;;;;;;;;;16.27;67.67;100144.28;5104988;28;1814;-46
2021/03/18 01:29:40;;;;;;;;;;;;;;;16.25;66.77;100143.56;5099111;28;1548;-46
2021/03/18 01:32:07;;;;;;;;;;;;;;;16.25;67.41;100148.03;5114714;28;831;-46
2021/03/18 01:34:33;;;;;;;;;;;;;;;16.24;67.20;100147.19;5110824;27;1803;-46
2021/03/18 01:36:59;;;;;;;;;;;;;;;16.25;67.25;100154.25;5108057;28;1786;-46
2021/03/18 01:39:25;;;;;;;;;;;;;;;16.23;67.46;100156.16;5100493;28;1655;-47
2021/03/18 01:41:52;;;;;;;;;;;;;;;16.22;67.33;100153.66;5108600;28;1842;-46
2021/03/18 01:44:18;;;;;;;;;;;;;;;16.23;66.83;100156.16;5094170;28;1890;-46
2021/03/18 01:46:44;;;;;;;;;;;;;;;16.21;66.64;100167.94;5093744;28;1115;-45
2021/03/18 01:49:12;;;;;;;;;;;;;;;16.20;67.05;100159.13;5096416;28;1580;-46
2021/03/18 01:51:39;;;;;;;;;;;;;;;16.19;66.76;100160.06;5104191;28;1370;-46
2021/03/18 01:54:13;;;;;;;;;;;;;;;16.19;67.57;100156.56;5101731;28;1897;-46
2021/03/18 01:56:39;;;;;;;;;;;;;;;16.19;66.92;100159.25;5104903;28;1645;-45
2021/03/18 01:59:05;;;;;;;;;;;;;;;16.19;66.96;100149.41;5104349;28;1404;-46
2021/03/18 02:01:31;;;;;;;;;;;;;;;16.17;66.89;100143.34;5094459;28;2024;-47
2021/03/18 02:03:57;;;;;;;;;;;;;;;16.19;67.29;100149.41;5111815;28;1885;-46
2021/03/18 02:06:23;;;;;;;;;;;;;;;16.20;67.81;100148.44;5113972;28;808;-46
2021/03/18 02:08:50;;;;;;;;;;;;;;;16.15;66.71;100142.66;5112202;28;1978;-46
2021/03/18 02:11:16;;;;;;;;;;;;;;;16.16;67.31;100148.84;5096386;28;1345;-46
2021/03/18 02:13:42;;;;;;;;;;;;;;;16.16;67.35;100157.69;5092889;28;1981;-46
2021/03/18 02:16:10;;;;;;;;;;;;;;;16.16;66.91;100163.03;5101794;28;1857;-46
2021/03/18 02:18:55;;;;;;;;;;;;;;;16.17;68.00;100172.69;5108122;28;1957;-47
2021/03/18 02:21:40;;;;;;;;;;;;;;;16.15;67.67;100169.31;5094663;28;1474;-45
2021/03/18 02:24:15;;;;;;;;;;;;;;;16.18;66.67;100166.41;5111070;28;1973;-46
2021/03/18 02:26:53;;;;;;;;;;;;;;;16.18;67.80;100185.06;5095897;28;1396;-46
2021/03/18 02:29:38;;;;;;;;;;;;;;;16.22;67.10;100169.66;5111804;28;1933;-46
2021/03/18 02:32:07;;;;;;;;;;;;;;;16.21;66.24;100176.78;5113643;28;803;-45
2021/03/18 02:34:33;;;;;;;;;;;;;;;16.23;66.34;100172.16;5101658;28;1428;-47
2021/03/18 02:37:11;;;;;;;;;;;;;;;16.26;66.88;100176.41;5099086;28;1776;-46
2021/03/18 02:39:48;;;;;;;;;;;;;;;16.26;67.37;100181.75;5109439;28;1958;-47
2021/03/18 02:42:16;;;;;;;;;;;;;;;16.22;66.48;100173.16;5111978;28;1396;-46
2021/03/18 02:44:43;;;;;;;;;;;;;;;16.24;66.52;100181.88;5110110;28;1894;-49
2021/03/18 02:47:10;;;;;;;;;;;;;;;16.17;66.42;100188.69;5092840;28;1415;-46
2021/03/18 02:49:40;;;;;;;;;;;;;;;16.20;66.54;100176.94;5091787;28;1679;-46
2021/03/18 02:52:07;;;;;;;;;;;;;;;16.19;67.11;100191.25;5091459;28;1419;-46
2021/03/18 02:54:40;;;;;;;;;;;;;;;16.15;66.66;100182.66;5106743;28;1619;-46
2021/03/18 02:57:08;;;;;;;;;;;;;;;16.14;67.78;100180.16;5107564;28;1775;-46
2021/03/18 02:59:50;;;;;;;;;;;;;;;16.15;67.34;100189.81;5106010;28;1699;-46
2021/03/18 03:02:18;;;;;;;;;;;;;;;16.13;67.12;100194.44;5103499;28;1351;-46
2021/03/18 03:04:44;;;;;;;;;;;;;;;16.13;66.95;100181.94;5093459;28;1955;-46
2021/03/18 03:07:11;;;;;;;;;;;;;;;16.12;67.47;100196.28;5097365;28;1715;-46
2021/03/18 03:09:40;;;;;;;;;;;;;;;16.13;67.94;100203.28;5108899;28;1479;-47
2021/03/18 03:12:06;;;;;;;;;;;;;;;16.10;67.08;100206.22;5089138;22;3561;-59
2021/03/18 03:14:32;;;;;;;;;;;;;;;16.09;66.61;100201.84;5071834;28;1318;-59
2021/03/18 03:16:59;;;;;;;;;;;;;;;16.10;67.17;100192.88;5072075;28;1562;-59
2021/03/18 03:19:25;;;;;;;;;;;;;;;16.09;68.13;100201.84;5071907;28;1185;-59
2021/03/18 03:21:50;;;;;;;;;;;;;;;16.09;67.61;100207.19;5072335;28;1542;-66
2021/03/18 03:24:17;;;;;;;;;;;;;;;16.10;66.75;100211.56;5070910;28;1905;-59
2021/03/18 03:26:42;;;;;;;;;;;;;;;16.10;67.97;100214.22;5076176;28;1582;-59
2021/03/18 03:29:07;;;;;;;;;;;;;;;16.07;66.88;100219.81;5076704;28;805;-59
2021/03/18 03:31:33;;;;;;;;;;;;;;;16.10;67.19;100214.22;5074697;28;1510;-66
2021/03/18 03:33:58;;;;;;;;;;;;;;;16.07;67.93;100227.81;5076081;28;1277;-59
2021/03/18 03:36:24;;;;;;;;;;;;;;;16.05;67.80;100221.75;5075836;28;1677;-59
2021/03/18 03:38:50;;;;;;;;;;;;;;;16.09;67.36;100233.84;5075957;28;1439;-63
2021/03/18 03:41:15;;;;;;;;;;;;;;;16.04;67.95;100230.75;5075899;28;1476;-67
2021/03/18 03:43:41;;;;;;;;;;;;;;;16.05;67.08;100238.59;5076339;28;1955;-59
2021/03/18 03:46:06;;;;;;;;;;;;;;;16.08;66.79;100240.19;5075517;28;1487;-59
2021/03/18 03:48:33;;;;;;;;;;;;;;;16.08;67.41;100234.84;5075531;28;1411;-59
2021/03/18 03:50:59;;;;;;;;;;;;;;;16.10;66.57;100236.41;5076412;28;848;-66
2021/03/18 03:53:33;;;;;;;;;;;;;;;16.13;67.38;100240.63;5075634;28;1689;-59
2021/03/18 03:56:03;;;;;;;;;;;;;;;16.16;67.61;100240.38;5065478;28;1466;-63
2021/03/18 03:58:40;;;;;;;;;;;;;;;16.16;66.64;100236.88;5075381;28;1504;-66
2021/03/18 04:01:07;;;;;;;;;;;;;;;16.17;67.47;100241.22;5075177;28;1488;-59
2021/03/18 04:03:34;;;;;;;;;;;;;;;16.13;67.57;100245.97;5075124;28;1951;-66
2021/03/18 04:06:00;;;;;;;;;;;;;;;16.13;66.90;100251.28;5076149;28;796;-59
2021/03/18 04:08:27;;;;;;;;;;;;;;;16.10;67.31;100243.56;5075221;28;1734;-59
2021/03/18 04:10:54;;;;;;;;;;;;;;;16.07;66.93;100241.97;5075036;28;1471;-59
2021/03/18 04:13:20;;;;;;;;;;;;;;;16.04;66.90;100250.25;5074812;28;1611;-65
2021/03/18 04:15:47;;;;;;;;;;;;;;;16.08;67.10;100250.84;5075051;28;1591;-59
2021/03/18 04:18:12;;;;;;;;;;;;;;;16.06;66.73;100258.13;5074972;28;1341;-59
2021/03/18 04:20:39;;;;;;;;;;;;;;;16.03;67.29;100251.22;5075315;28;783;-66
2021/03/18 04:23:07;;;;;;;;;;;;;;;16.04;66.88;100268.09;5074547;28;1972;-65
2021/03/18 04:25:33;;;;;;;;;;;;;;;16.05;67.54;100254.59;5074984;28;1674;-66
2021/03/18 04:27:58;;;;;;;;;;;;;;;16.02;66.48;100254.03;5074675;28;1555;-60
2021/03/18 04:30:26;;;;;;;;;;;;;;;16.03;67.70;100261.88;5074695;28;1476;-66
2021/03/18 04:32:52;;;;;;;;;;;;;;;16.01;66.93;100279.84;5075653;28;919;-59
2021/03/18 04:35:18;;;;;;;;;;;;;;;16.01;67.93;100265.66;5074139;28;1809;-66
2021/03/18 04:37:43;;;;;;;;;;;;;;;15.98;67.51;100264.09;5074707;28;1682;-66
2021/03/18 04:40:11;;;;;;;;;;;;;;;15.99;66.70;100270.28;5074353;28;1384;-67
2021/03/18 04:42:36;;;;;;;;;;;;;;;16.01;67.78;100266.50;5062381;28;1968;-59
2021/03/18 04:45:03;;;;;;;;;;;;;;;16.01;66.71;100279.00;5069023;28;1571;-59
2021/03/18 04:47:29;;;;;;;;;;;;;;;16.00;67.79;100280.00;5075389;28;827;-66
2021/03/18 04:49:55;;;;;;;;;;;;;;;15.98;67.61;100269.44;5073988;28;1358;-59
2021/03/18 04:52:21;;;;;;;;;;;;;;;15.96;66.87;100270.56;5056658;28;1155;-67
2021/03/18 04:54:46;;;;;;;;;;;;;;;15.97;66.94;100277.56;5072819;28;1379;-66
2021/03/18 04:57:15;;;;;;;;;;;;;;;16.02;66.81;100286.03;5074370;28;1678;-59
2021/03/18 04:59:42;;;;;;;;;;;;;;;15.97;66.79;100282.91;5074292;28;1467;-59
2021/03/18 05:02:08;;;;;;;;;;;;;;;15.96;67.78;100286.56;5074302;28;1531;-66
2021/03/18 05:04:34;;;;;;;;;;;;;;;16.01;67.36;100295.84;5073745;28;1961;-66
2021/03/18 05:07:00;;;;;;;;;;;;;;;16.01;66.47;100295.00;5074286;28;1532;-66
2021/03/18 05:09:26;;;;;;;;;;;;;;;15.98;66.50;100296.13;5073805;28;1359;-66
2021/03/18 05:11:52;;;;;;;;;;;;;;;15.99;67.05;100286.28;5074464;28;1535;-59
2021/03/18 05:14:18;;;;;;;;;;;;;;;16.04;66.39;100289.44;5074024;28;1251;-59
2021/03/18 05:16:44;;;;;;;;;;;;;;;16.06;66.21;100292.81;5061273;28;1526;-59
2021/03/18 05:19:11;;;;;;;;;;;;;;;16.07;66.15;100290.00;5073795;28;1749;-66
2021/03/18 05:21:37;;;;;;;;;;;;;;;16.07;67.17;100289.16;5073070;28;1332;-59
2021/03/18 05:24:03;;;;;;;;;;;;;;;16.06;67.60;100298.97;5073052;28;1918;-59
2021/03/18 05:26:29;;;;;;;;;;;;;;;16.03;66.95;100303.72;5073511;28;1380;-66
2021/03/18 05:28:54;;;;;;;;;;;;;;;16.03;66.49;100311.72;5073590;28;1218;-66
2021/03/18 05:31:23;;;;;;;;;;;;;;;16.01;67.66;100317.19;5074276;28;872;-59
2021/03/18 05:33:50;;;;;;;;;;;;;;;15.99;67.32;100313.78;5073932;28;1638;-65
2021/03/18 05:36:15;;;;;;;;;;;;;;;15.99;67.75;100316.47;5073378;28;1214;-66
2021/03/18 05:38:40;;;;;;;;;;;;;;;16.00;67.85;100312.84;5073209;28;1606;-67
2021/03/18 05:41:06;;;;;;;;;;;;;;;15.97;67.33;100315.75;5074117;28;915;-66
2021/03/18 05:43:32;;;;;;;;;;;;;;;15.98;66.48;100312.13;5073075;28;1890;-59
2021/03/18 05:45:57;;;;;;;;;;;;;;;16.00;67.44;100320.00;5073093;28;1610;-59
2021/03/18 05:48:22;;;;;;;;;;;;;;;16.02;67.66;100336.72;5072173;28;1217;-66
2021/03/18 05:50:48;;;;;;;;;;;;;;;16.00;66.75;100336.00;5074009;28;796;-66
2021/03/18 05:53:16;;;;;;;;;;;;;;;15.96;67.08;100324.72;5073180;28;1471;-66
2021/03/18 05:55:42;;;;;;;;;;;;;;;15.97;66.83;100336.22;5073100;28;1543;-66
2021/03/18 05:58:08;;;;;;;;;;;;;;;15.95;66.79;100338.19;5067340;28;1293;-59
2021/03/18 06:00:34;;;;;;;;;;;;;;;15.96;66.23;100334.56;5073253;28;1559;-66
2021/03/18 06:03:00;;;;;;;;;;;;;;;15.98;66.35;100348.63;5073121;28;1923;-59
2021/03/18 06:05:26;;;;;;;;;;;;;;;15.96;66.51;100351.41;5072605;28;1542;-59
2021/03/18 06:07:51;;;;;;;;;;;;;;;15.94;67.77;100349.84;5072964;28;1698;-60
2021/03/18 06:10:18;;;;;;;;;;;;;;;15.94;67.78;100347.16;5072515;28;1556;-59
2021/03/18 06:12:44;;;;;;;;;;;;;;;15.94;67.54;100360.50;5067154;28;1388;-59
2021/03/18 06:15:11;;;;;;;;;;;;;;;15.94;67.15;100366.69;5072778;28;1528;-66
2021/03/18 06:17:37;;;;;;;;;;;;;;;15.96;67.82;100366.56;5073543;28;926;-59
2021/03/18 06:20:11;;;;;;;;;;;;;;;15.93;66.46;100356.13;5072430;28;1374;-66
2021/03/18 06:22:43;;;;;;;;;;;;;;;15.97;67.90;100369.06;5072608;28;1981;-66
2021/03/18 06:25:18;;;;;;;;;;;;;;;15.96;67.54;100379.88;5072372;28;1527;-59
2021/03/18 06:27:44;;;;;;;;;;;;;;;15.97;67.56;100376.22;5061827;28;1199;-66
2021/03/18 06:30:10;;;;;;;;;;;;;;;15.99;66.18;100375.13;5072555;28;1582;-59
2021/03/18 06:32:35;;;;;;;;;;;;;;;16.02;66.37;100376.72;5058446;28;1154;-59
2021/03/18 06:35:01;;;;;;;;;;;;;;;16.09;66.89;100375.22;5067377;28;1331;-61
2021/03/18 06:37:33;;;;;;;;;;;;;;;16.08;67.17;100377.06;5062272;28;1301;-66
2021/03/18 06:40:16;;;;;;;;;;;;;;;16.08;66.03;100378.88;5071940;28;1214;-59
2021/03/18 06:42:50;;;;;;;;;;;;;;;16.11;65.94;100394.63;5071766;28;1953;-66
2021/03/18 06:45:16;;;;;;;;;;;;;;;16.09;66.32;100392.09;5072239;28;1594;-59
2021/03/18 06:47:44;;;;;;;;;;;;;;;16.05;66.52;100387.97;5057502;28;1150;-66
2021/03/18 06:50:11;;;;;;;;;;;;;;;16.06;66.28;100402.16;5068983;28;1319;-66
2021/03/18 06:52:37;;;;;;;;;;;;;;;16.07;66.77;100406.50;5071435;28;1548;-60
2021/03/18 06:55:03;;;;;;;;;;;;;;;16.04;66.00;100406.78;5072617;28;859;-67
2021/03/18 06:57:28;;;;;;;;;;;;;;;16.04;66.84;100404.94;5071913;28;1548;-59
2021/03/18 06:59:53;;;;;;;;;;;;;;;16.03;67.20;100399.72;5071906;28;1343;-59
2021/03/18 07:02:19;;;;;;;;;;;;;;;16.06;66.20;100404.84;5072490;28;1559;-59
2021/03/18 07:04:46;;;;;;;;;;;;;;;16.01;67.29;100402.53;5069484;28;1897;-59
2021/03/18 07:07:12;;;;;;;;;;;;;;;16.01;66.18;100415.00;5070505;28;1734;-59
2021/03/18 07:09:38;;;;;;;;;;;;;;;15.99;67.09;100401.81;5071870;28;1547;-58
2021/03/18 07:12:06;;;;;;;;;;;;;;;15.99;66.44;100406.28;5071780;28;1622;-59
2021/03/18 07:14:33;;;;;;;;;;;;;;;16.02;67.01;100414.91;5072906;28;855;-66
2021/03/18 07:16:58;;;;;;;;;;;;;;;16.01;66.26;100423.84;5072148;28;1183;-66
2021/03/18 07:19:25;;;;;;;;;;;;;;;16.02;66.49;100424.72;5066082;28;1507;-59
2021/03/18 07:21:50;;;;;;;;;;;;;;;15.98;67.35;100399.28;5071890;28;1180;-59
2021/03/18 07:24:31;;;;;;;;;;;;;;;15.99;67.33;100404.47;5071092;28;1918;-59
2021/03/18 07:26:58;;;;;;;;;;;;;;;15.98;67.01;100417.94;5063340;28;1587;-59
2021/03/18 07:29:25;;;;;;;;;;;;;;;15.99;66.91;100419.63;5071735;28;1193;-66
2021/03/18 07:31:51;;;;;;;;;;;;;;;15.98;66.66;100415.28;5072786;28;792;-59
2021/03/18 07:34:17;;;;;;;;;;;;;;;15.97;66.50;100422.41;5071763;28;1806;-66
2021/03/18 07:36:43;;;;;;;;;;;;;;;15.99;66.25;100420.47;5072024;28;1222;-65
2021/03/18 07:39:09;;;;;;;;;;;;;;;15.98;67.41;100421.44;5072238;28;1622;-59
2021/03/18 07:41:35;;;;;;;;;;;;;;;15.97;66.79;100418.91;5071634;28;1575;-66
2021/03/18 07:44:00;;;;;;;;;;;;;;;15.97;67.51;100437.56;5071667;28;1890;-66
2021/03/18 07:46:26;;;;;;;;;;;;;;;15.97;66.22;100432.25;5072494;28;793;-66
2021/03/18 07:48:55;;;;;;;;;;;;;;;15.98;66.67;100431.28;5071355;28;1511;-66
2021/03/18 07:51:21;;;;;;;;;;;;;;;15.96;67.35;100433.22;5072507;28;824;-66
2021/03/18 07:53:50;;;;;;;;;;;;;;;15.98;66.74;100437.47;5071767;28;1718;-59
2021/03/18 07:56:16;;;;;;;;;;;;;;;16.04;67.17;100444.97;5071488;28;1582;-66
2021/03/18 07:58:42;;;;;;;;;;;;;;;16.01;65.91;100445.19;5071707;28;1224;-59
2021/03/18 08:01:28;;;;;;;;;;;;;;;16.03;66.60;100448.59;5071272;28;1523;-59
2021/03/18 08:03:53;;;;;;;;;;;;;;;16.06;67.18;100437.69;5065725;28;1965;-66
2021/03/18 08:06:38;;;;;;;;;;;;;;;16.04;67.13;100449.44;5062561;28;809;-66
2021/03/18 08:09:04;;;;;;;;;;;;;;;15.99;66.25;100440.97;5071941;28;1250;-59
2021/03/18 08:11:33;;;;;;;;;;;;;;;15.98;66.05;100458.78;5073449;28;1697;-59
2021/03/18 08:14:05;;;;;;;;;;;;;;;15.99;67.29;100456.97;5074902;28;1390;-59
2021/03/18 08:16:31;;;;;;;;;;;;;;;15.97;66.90;100456.25;5070983;28;1327;-59
2021/03/18 08:18:57;;;;;;;;;;;;;;;15.96;66.07;100457.22;5074780;28;1630;-66
2021/03/18 08:21:52;;;;;;;;;;;;;;;15.95;67.35;100444.84;5075256;28;1511;-66
2021/03/18 08:24:23;;;;;;;;;;;;;;;15.95;67.41;100450.19;5060688;28;1918;-59
2021/03/18 08:26:52;;;;;;;;;;;;;;;16.00;66.09;100461.34;5074954;28;1603;-65
2021/03/18 08:29:30;;;;;;;;;;;;;;;15.95;66.89;100456.34;5074090;28;1589;-66
2021/03/18 08:32:02;;;;;;;;;;;;;;;15.95;66.13;100461.69;5072642;28;734;-59
2021/03/18 08:34:46;;;;;;;;;;;;;;;15.97;66.81;100490.91;5074538;28;1690;-67
2021/03/18 08:37:12;;;;;;;;;;;;;;;15.97;67.19;100458.91;5074998;28;1591;-66
2021/03/18 08:39:40;;;;;;;;;;;;;;;15.94;66.82;100469.84;5074440;28;1542;-66
2021/03/18 08:42:26;;;;;;;;;;;;;;;15.95;67.23;100472.34;5074522;28;1690;-66
2021/03/18 08:44:51;;;;;;;;;;;;;;;15.96;67.25;100473.22;5063783;28;1882;-59
2021/03/18 08:47:17;;;;;;;;;;;;;;;15.95;67.33;100477.69;5075576;28;895;-66
2021/03/18 08:49:43;;;;;;;;;;;;;;;15.92;67.31;100467.28;5074299;28;1310;-63
2021/03/18 08:52:10;;;;;;;;;;;;;;;15.90;67.12;100475.41;5075352;28;797;-59
2021/03/18 08:54:38;;;;;;;;;;;;;;;15.91;66.28;100495.75;5074487;28;1520;-66
2021/03/18 08:57:08;;;;;;;;;;;;;;;15.93;66.62;100479.63;5069492;28;1287;-66
2021/03/18 08:59:34;;;;;;;;;;;;;;;15.94;66.92;100485.84;5073578;28;1199;-59
2021/03/18 09:02:07;;;;;;;;;;;;;;;15.90;67.13;100478.06;5073805;28;1377;-59
2021/03/18 09:04:50;;;;;;;;;;;;;;;15.91;66.99;100482.41;5073789;28;1957;-59
2021/03/18 09:07:19;;;;;;;;;;;;;;;15.91;67.08;100482.41;5073797;28;1412;-59
2021/03/18 09:09:45;;;;;;;;;;;;;;;15.91;66.04;100481.56;5074928;28;855;-59
2021/03/18 09:12:10;;;;;;;;;;;;;;;15.89;67.20;100476.34;5073661;28;1765;-66
2021/03/18 09:14:39;;;;;;;;;;;;;;;15.95;67.09;100492.84;5074019;28;1638;-59
2021/03/18 09:17:12;;;;;;;;;;;;;;;15.97;66.73;100493.56;5073684;28;1415;-66
2021/03/18 09:19:47;;;;;;;;;;;;;;;15.97;65.97;100498.91;5061543;28;1181;-66
2021/03/18 09:22:24;;;;;;;;;;;;;;;15.97;66.03;100488.25;5068109;28;1657;-59
2021/03/18 09:24:54;;;;;;;;;;;;;;;15.99;66.23;100496.97;5073717;28;1977;-59
2021/03/18 09:27:19;;;;;;;;;;;;;;;15.98;66.95;100497.97;5073778;28;1595;-66
2021/03/18 09:29:44;;;;;;;;;;;;;;;15.96;67.18;100498.06;5073606;28;1531;-66
2021/03/18 09:32:13;;;;;;;;;;;;;;;15.95;66.08;100495.53;5074824;28;788;-66
2021/03/18 09:34:40;;;;;;;;;;;;;;;15.92;67.17;100499.28;5073384;28;1339;-65
2021/03/18 09:37:06;;;;;;;;;;;;;;;15.95;65.99;100519.53;5073416;28;1196;-65
2021/03/18 09:39:31;;;;;;;;;;;;;;;15.93;66.07;100510.78;5073436;28;1523;-66
2021/03/18 09:41:59;;;;;;;;;;;;;;;15.91;66.40;100508.25;5064247;28;1594;-66
2021/03/18 09:44:28;;;;;;;;;;;;;;;15.95;66.09;100524.84;5067179;28;1889;-66
2021/03/18 09:47:12;;;;;;;;;;;;;;;15.89;67.32;100513.69;5074144;28;865;-59
2021/03/18 09:49:38;;;;;;;;;;;;;;;15.89;67.27;100521.69;5073566;28;1686;-59
2021/03/18 09:52:05;;;;;;;;;;;;;;;15.91;67.22;100522.41;5074131;28;824;-59
2021/03/18 09:54:32;;;;;;;;;;;;;;;15.91;67.27;100517.09;5072908;28;1368;-66
2021/03/18 09:56:58;;;;;;;;;;;;;;;15.88;66.47;100536.00;5072995;28;1181;-59
2021/03/18 09:59:24;;;;;;;;;;;;;;;15.87;65.99;100526.28;5073005;28;1582;-66
2021/03/18 10:01:50;;;;;;;;;;;;;;;15.91;67.02;100526.91;5072593;28;1416;-59
2021/03/18 10:04:17;;;;;;;;;;;;;;;15.89;66.33;100528.84;5072755;28;1963;-66
2021/03/18 10:06:47;;;;;;;;;;;;;;;15.87;66.73;100528.97;5061551;28;1559;-66
2021/03/18 10:09:33;;;;;;;;;;;;;;;15.89;66.44;100524.34;5073304;28;824;-66
2021/03/18 10:12:01;;;;;;;;;;;;;;;15.87;67.14;100504.97;5072636;28;1539;-59
2021/03/18 10:14:30;;;;;;;;;;;;;;;15.90;67.03;100528.72;5073391;28;832;-59
2021/03/18 10:16:58;;;;;;;;;;;;;;;15.86;67.23;100521.94;5072626;28;1354;-59
2021/03/18 10:19:24;;;;;;;;;;;;;;;15.87;66.44;100528.97;5072739;28;1725;-59
2021/03/18 10:21:51;;;;;;;;;;;;;;;15.91;66.35;100530.41;5072262;28;1559;-59
2021/03/18 10:24:16;;;;;;;;;;;;;;;15.90;66.30;100542.06;5072307;28;1977;-66
2021/03/18 10:26:42;;;;;;;;;;;;;;;15.88;66.59;100525.34;5072336;28;1682;-59
2021/03/18 10:29:08;;;;;;;;;;;;;;;15.89;66.21;100527.03;5072295;28;1740;-62
2021/03/18 10:31:35;;;;;;;;;;;;;;;15.87;67.11;100534.28;5073344;28;851;-59
2021/03/18 10:34:01;;;;;;;;;;;;;;;15.87;66.55;100539.63;5072421;28;1706;-66
2021/03/18 10:36:37;;;;;;;;;;;;;;;15.90;66.12;100533.22;5072259;28;1559;-59
2021/03/18 10:39:05;;;;;;;;;;;;;;;15.93;66.21;100527.63;5072272;28;1535;-65
2021/03/18 10:41:31;;;;;;;;;;;;;;;15.94;65.90;100518.69;5066715;28;1590;-59
2021/03/18 10:43:57;;;;;;;;;;;;;;;15.94;65.80;100529.34;5071803;28;1885;-66
2021/03/18 10:46:27;;;;;;;;;;;;;;;15.96;65.64;100529.22;5072231;28;742;-59
2021/03/18 10:48:52;;;;;;;;;;;;;;;15.96;65.60;100526.56;5072352;28;1760;-66
2021/03/18 10:51:20;;;;;;;;;;;;;;;15.96;66.01;100529.22;5073089;28;824;-59
2021/03/18 10:53:45;;;;;;;;;;;;;;;15.91;67.05;100529.56;5071778;28;1503;-59
2021/03/18 10:56:12;;;;;;;;;;;;;;;15.95;66.69;100530.19;5072114;28;1195;-59
2021/03/18 10:58:38;;;;;;;;;;;;;;;15.90;67.17;100536.72;5072091;28;1587;-59
2021/03/18 11:01:06;;;;;;;;;;;;;;;15.89;66.93;100527.03;5072064;28;1430;-59
2021/03/18 11:03:42;;;;;;;;;;;;;;;15.90;66.42;100520.72;5072235;28;1965;-59
2021/03/18 11:06:14;;;;;;;;;;;;;;;15.88;66.72;100525.34;5068442;28;856;-66
2021/03/18 11:08:42;;;;;;;;;;;;;;;15.87;66.47;100533.44;5071823;28;1555;-66
2021/03/18 11:11:21;;;;;;;;;;;;;;;15.86;67.14;100526.44;5071708;28;1641;-66
2021/03/18 11:13:47;;;;;;;;;;;;;;;15.86;67.15;100527.28;5072179;28;1579;-67
2021/03/18 11:16:20;;;;;;;;;;;;;;;15.88;66.71;100533.34;5071753;28;1621;-66
2021/03/18 11:18:46;;;;;;;;;;;;;;;15.84;66.05;100526.56;5072007;28;1606;-59
2021/03/18 11:21:22;;;;;;;;;;;;;;;15.86;66.61;100531.78;5071763;28;1188;-66
2021/03/18 11:23:48;;;;;;;;;;;;;;;15.83;66.54;100524.84;5067936;28;1886;-65
2021/03/18 11:26:14;;;;;;;;;;;;;;;15.85;65.85;100522.91;5072157;28;1590;-59
2021/03/18 11:28:56;;;;;;;;;;;;;;;15.83;66.95;100511.50;5072597;28;789;-65
2021/03/18 11:31:22;;;;;;;;;;;;;;;15.83;67.18;100522.19;5072295;28;934;-59
2021/03/18 11:33:48;;;;;;;;;;;;;;;15.82;66.41;100525.81;5072219;28;1721;-59
2021/03/18 11:36:13;;;;;;;;;;;;;;;15.84;66.15;100521.22;5071885;28;1535;-63
2021/03/18 11:38:39;;;;;;;;;;;;;;;15.82;66.18;100509.00;5071823;28;1590;-66
2021/03/18 11:41:04;;;;;;;;;;;;;;;15.81;66.69;100524.13;5072317;28;721;-66
2021/03/18 11:43:30;;;;;;;;;;;;;;;15.84;67.23;100523.03;5071538;28;1944;-66
2021/03/18 11:45:55;;;;;;;;;;;;;;;15.79;66.81;100509.22;5072960;28;1790;-59
2021/03/18 11:48:21;;;;;;;;;;;;;;;15.80;65.98;100519.75;5057715;28;1774;-66
2021/03/18 11:50:46;;;;;;;;;;;;;;;15.78;67.23;100503.03;5076563;28;773;-59
2021/03/18 11:53:12;;;;;;;;;;;;;;;15.79;67.00;100509.22;5075672;28;1737;-66
2021/03/18 11:55:40;;;;;;;;;;;;;;;15.81;66.08;100507.28;5075175;28;1245;-66
2021/03/18 11:58:06;;;;;;;;;;;;;;;15.80;67.11;100510.94;5075390;28;1598;-59
2021/03/18 12:00:33;;;;;;;;;;;;;;;15.82;67.12;100509.00;5075799;28;1536;-59
2021/03/18 12:03:00;;;;;;;;;;;;;;;15.87;66.67;100518.28;5075579;28;1955;-59
2021/03/18 12:05:25;;;;;;;;;;;;;;;15.86;66.08;100499.78;5069131;28;1698;-59
2021/03/18 12:07:51;;;;;;;;;;;;;;;15.87;65.92;100502.28;5075208;28;1761;-66
2021/03/18 12:10:16;;;;;;;;;;;;;;;15.87;67.07;100501.47;5066981;28;1591;-59
2021/03/18 12:12:42;;;;;;;;;;;;;;;15.85;66.19;100503.41;5074913;28;1450;-66
2021/03/18 12:15:09;;;;;;;;;;;;;;;15.82;65.98;100509.81;5074987;28;1671;-66
2021/03/18 12:17:35;;;;;;;;;;;;;;;15.84;67.00;100502.56;5067778;28;1170;-59
2021/03/18 12:20:01;;;;;;;;;;;;;;;15.83;66.56;100522.19;5064208;28;1393;-60
2021/03/18 12:22:26;;;;;;;;;;;;;;;15.82;67.29;100520.50;5075168;28;1554;-67
2021/03/18 12:24:52;;;;;;;;;;;;;;;15.82;67.21;100530.31;5074691;28;1914;-66
2021/03/18 12:27:17;;;;;;;;;;;;;;;15.80;67.08;100522.44;5074496;28;1184;-59
2021/03/18 12:29:43;;;;;;;;;;;;;;;15.77;67.03;100514.66;5074972;28;1619;-66
2021/03/18 12:32:08;;;;;;;;;;;;;;;15.77;66.50;100525.31;5075876;28;821;-66
2021/03/18 12:34:33;;;;;;;;;;;;;;;15.75;66.19;100516.59;5074672;28;1231;-66
2021/03/18 12:36:59;;;;;;;;;;;;;;;15.77;66.45;100522.66;5074511;28;1543;-59
2021/03/18 12:39:24;;;;;;;;;;;;;;;15.75;66.94;100535.25;5074744;28;1587;-59
2021/03/18 12:41:50;;;;;;;;;;;;;;;15.75;66.29;100537.94;5074418;28;1535;-65
2021/03/18 12:44:15;;;;;;;;;;;;;;;15.75;66.42;100531.75;5074215;28;1960;-65
2021/03/18 12:46:41;;;;;;;;;;;;;;;15.74;66.73;100532.72;5075741;28;870;-59
2021/03/18 12:49:07;;;;;;;;;;;;;;;15.76;66.25;100533.47;5074507;28;1318;-59
2021/03/18 12:51:32;;;;;;;;;;;;;;;15.74;67.47;100530.91;5075336;28;796;-59